Time;durP1;ratioP1;P1;durP2;ratioP2;P2;SDS_P1;SDS_P2;PMS_P1;PMS_P2;Temp;Humidity;BMP_temperature;BMP_pressure;BME280_temperature;BME280_humidity;BME280_pressure;Samples;Min_cycle;Max_cycle;Signal;HPM_P1;HPM_P2
2021/09/16 00:02:11;;;;;;;3.53;3.10;;;25.10;47.00;;;;;;5017065;28;20567;-72
2021/09/16 00:04:38;;;;;;;5.57;3.40;;;25.10;47.00;;;;;;5030053;28;20088;-71
2021/09/16 00:07:05;;;;;;;3.53;3.22;;;25.10;47.00;;;;;;5013731;28;20081;-72
2021/09/16 00:09:39;;;;;;;3.67;3.38;;;25.10;47.00;;;;;;5028855;28;20467;-71
2021/09/16 00:12:07;;;;;;;3.63;3.30;;;25.10;47.00;;;;;;5038489;28;20059;-71
2021/09/16 00:14:34;;;;;;;6.07;3.80;;;25.10;47.00;;;;;;5019160;28;20056;-72
2021/09/16 00:17:02;;;;;;;3.30;2.83;;;25.10;47.00;;;;;;5030204;28;20418;-72
2021/09/16 00:19:29;;;;;;;3.17;2.95;;;25.20;47.10;;;;;;5027373;28;20550;-70
2021/09/16 00:21:56;;;;;;;3.47;2.90;;;25.10;47.10;;;;;;4998887;28;20045;-72
2021/09/16 00:24:23;;;;;;;5.15;3.47;;;25.10;47.10;;;;;;5029219;28;20057;-71
2021/09/16 00:26:50;;;;;;;3.72;3.28;;;25.10;47.10;;;;;;5030962;28;20053;-72
2021/09/16 00:29:17;;;;;;;3.58;3.28;;;25.10;47.10;;;;;;5014470;28;20565;-72
2021/09/16 00:31:45;;;;;;;4.28;3.40;;;25.10;47.10;;;;;;5014033;28;20084;-71
2021/09/16 00:34:12;;;;;;;3.55;3.22;;;25.10;47.10;;;;;;5029951;28;20505;-71
2021/09/16 00:36:40;;;;;;;3.42;3.13;;;25.10;47.10;;;;;;5006865;28;20145;-72
2021/09/16 00:39:07;;;;;;;4.03;3.67;;;25.10;47.10;;;;;;5011288;28;20456;-71
2021/09/16 00:41:34;;;;;;;3.50;3.20;;;25.10;47.20;;;;;;5031976;28;20057;-71
2021/09/16 00:44:01;;;;;;;3.83;3.47;;;25.10;47.20;;;;;;5049846;28;20049;-72
2021/09/16 00:46:28;;;;;;;4.13;3.55;;;25.10;47.20;;;;;;5048890;28;20136;-71
2021/09/16 00:48:56;;;;;;;3.40;3.10;;;25.10;47.20;;;;;;5034936;28;20529;-71
2021/09/16 00:51:23;;;;;;;3.50;3.20;;;25.10;47.20;;;;;;5032825;28;20048;-72
2021/09/16 00:53:53;;;;;;;5.32;3.30;;;25.10;47.20;;;;;;5028190;28;20096;-71
2021/09/16 00:56:22;;;;;;;;;;;25.10;47.30;;;;;;5029887;28;20134;-70
2021/09/16 00:58:51;;;;;;;4.55;3.20;;;25.10;47.30;;;;;;5030151;28;19983;-72
2021/09/16 01:01:18;;;;;;;3.53;3.27;;;25.10;47.20;;;;;;5032462;28;20052;-72
2021/09/16 01:03:46;;;;;;;3.88;3.35;;;25.10;47.30;;;;;;5044022;28;20297;-71
2021/09/16 01:06:13;;;;;;;3.55;3.25;;;25.10;47.20;;;;;;5029581;28;20125;-72
2021/09/16 01:08:40;;;;;;;3.55;3.22;;;25.10;47.20;;;;;;5028374;28;20081;-71
2021/09/16 01:11:32;;;;;;;2.92;2.72;;;25.10;47.30;;;;;;5031545;28;20052;-70
2021/09/16 01:13:59;;;;;;;3.95;3.38;;;25.10;47.20;;;;;;5036822;28;20140;-72
2021/09/16 01:16:26;;;;;;;4.15;3.58;;;25.10;47.30;;;;;;5027185;28;20103;-72
2021/09/16 01:18:53;;;;;;;3.60;3.30;;;25.10;47.30;;;;;;5029445;28;20092;-70
2021/09/16 01:21:21;;;;;;;3.40;3.10;;;25.10;47.30;;;;;;5034569;28;20123;-71
2021/09/16 01:23:50;;;;;;;3.67;3.38;;;25.10;47.30;;;;;;5049100;28;20053;-72
2021/09/16 01:26:17;;;;;;;3.97;3.60;;;25.10;47.30;;;;;;5049476;28;20124;-71
2021/09/16 01:28:44;;;;;;;3.72;3.42;;;25.10;47.30;;;;;;5036516;28;20570;-71
2021/09/16 01:31:11;;;;;;;5.20;3.28;;;25.10;47.40;;;;;;5028918;28;20057;-71
2021/09/16 01:33:38;;;;;;;3.13;2.92;;;25.10;47.40;;;;;;5024926;28;20132;-70
2021/09/16 01:36:10;;;;;;;2.95;2.75;;;25.10;47.40;;;;;;5030113;28;20053;-71
2021/09/16 01:38:37;;;;;;;3.65;3.35;;;25.10;47.40;;;;;;5028026;28;20129;-72
2021/09/16 01:41:04;;;;;;;3.40;3.10;;;25.10;47.40;;;;;;5016123;28;20038;-71
2021/09/16 01:43:32;;;;;;;3.13;2.92;;;25.00;47.40;;;;;;5027066;28;20045;-72
2021/09/16 01:45:59;;;;;;;3.70;3.33;;;25.10;47.40;;;;;;5027513;28;20052;-71
2021/09/16 01:48:26;;;;;;;3.15;2.88;;;25.00;47.40;;;;;;5028839;28;20707;-72
2021/09/16 01:54:06;;;;;;;3.65;3.35;;;25.00;47.40;;;;;;5041829;28;20045;-72
2021/09/16 01:56:33;;;;;;;3.28;2.97;;;25.00;47.40;;;;;;5009381;28;20137;-72
2021/09/16 01:59:00;;;;;;;3.78;3.42;;;25.00;47.40;;;;;;5034042;28;20053;-72
2021/09/16 02:01:27;;;;;;;3.58;3.28;;;25.10;47.50;;;;;;5038733;28;20169;-71
2021/09/16 02:03:54;;;;;;;3.28;3.00;;;25.00;47.40;;;;;;5036609;28;20072;-72
2021/09/16 02:06:22;;;;;;;3.22;2.92;;;25.00;47.40;;;;;;5045052;28;20076;-72
2021/09/16 02:08:50;;;;;;;3.67;3.38;;;25.00;47.40;;;;;;5031727;28;20104;-70
2021/09/16 02:11:17;;;;;;;3.50;2.90;;;25.00;47.40;;;;;;5046204;28;20104;-71
2021/09/16 02:17:07;;;;;;;2.90;2.70;;;25.00;47.40;;;;;;5025491;28;20694;-72
2021/09/16 02:19:34;;;;;;;3.10;2.83;;;25.00;47.40;;;;;;5029418;28;20128;-71
2021/09/16 02:22:02;;;;;;;2.72;2.53;;;25.00;47.40;;;;;;5043009;28;20589;-71
2021/09/16 02:24:29;;;;;;;3.35;3.03;;;25.00;47.40;;;;;;5052697;28;20045;-72
2021/09/16 02:26:59;;;;;;;3.30;3.00;;;25.00;47.40;;;;;;5046285;28;20055;-73
2021/09/16 02:29:26;;;;;;;3.13;2.92;;;25.00;47.40;;;;;;5050544;28;20666;-71
2021/09/16 02:31:53;;;;;;;2.75;2.55;;;25.00;47.40;;;;;;5006974;28;20046;-71
2021/09/16 02:34:21;;;;;;;3.20;3.00;;;25.00;47.40;;;;;;5013713;28;20088;-72
2021/09/16 02:36:48;;;;;;;3.35;3.13;;;25.00;47.50;;;;;;5012239;28;20686;-71
2021/09/16 02:39:24;;;;;;;3.00;2.80;;;25.00;47.50;;;;;;5031431;28;20474;-70
2021/09/16 02:41:51;;;;;;;3.40;3.20;;;25.00;47.50;;;;;;5016173;28;20811;-70
2021/09/16 02:44:18;;;;;;;3.60;3.33;;;25.00;47.50;;;;;;5030632;28;20838;-71
2021/09/16 02:46:45;;;;;;;3.00;2.80;;;25.00;47.50;;;;;;5031568;28;20450;-72
2021/09/16 02:49:12;;;;;;;3.17;2.88;;;25.00;47.50;;;;;;5031370;28;20332;-70
2021/09/16 02:51:39;;;;;;;2.80;2.60;;;25.00;47.60;;;;;;5026800;28;20037;-72
2021/09/16 02:54:08;;;;;;;3.65;3.03;;;25.00;47.60;;;;;;5032318;28;20089;-70
2021/09/16 02:56:35;;;;;;;3.17;2.97;;;25.00;47.60;;;;;;5020922;28;20107;-72
2021/09/16 02:59:02;;;;;;;2.92;2.72;;;25.00;47.60;;;;;;5014237;28;20467;-72
2021/09/16 03:01:29;;;;;;;2.92;2.72;;;25.00;47.60;;;;;;5030048;28;20044;-71
2021/09/16 03:03:56;;;;;;;3.05;2.85;;;25.00;47.60;;;;;;5051847;28;20072;-72
2021/09/16 03:06:23;;;;;;;3.38;3.10;;;24.90;47.60;;;;;;5039087;28;20498;-71
2021/09/16 03:08:50;;;;;;;3.78;3.47;;;24.90;47.60;;;;;;5030109;28;20077;-72
2021/09/16 03:11:40;;;;;;;3.17;2.90;;;24.90;47.60;;;;;;5030859;28;20509;-70
2021/09/16 03:14:07;;;;;;;3.28;2.90;;;24.90;47.60;;;;;;5030344;28;20080;-71
2021/09/16 03:16:35;;;;;;;4.13;2.50;;;25.00;47.70;;;;;;5030781;28;20602;-72
2021/09/16 03:19:02;;;;;;;2.90;2.70;;;25.00;47.60;;;;;;5029594;28;20133;-72
2021/09/16 03:21:29;;;;;;;3.17;2.97;;;24.90;47.60;;;;;;5035346;28;20132;-71
2021/09/16 03:23:56;;;;;;;2.75;2.50;;;25.00;47.60;;;;;;5049294;28;20120;-72
2021/09/16 03:26:24;;;;;;;3.13;2.92;;;25.00;47.60;;;;;;5051057;28;20133;-72
2021/09/16 03:28:53;;;;;;;2.97;2.75;;;25.00;47.60;;;;;;5050987;28;20060;-72
2021/09/16 03:31:20;;;;;;;3.33;3.03;;;25.00;47.60;;;;;;5039522;28;20160;-70
2021/09/16 03:33:47;;;;;;;2.88;2.67;;;24.90;47.60;;;;;;5049156;28;20127;-72
2021/09/16 03:36:16;;;;;;;3.30;3.05;;;24.90;47.60;;;;;;5021158;28;20049;-72
2021/09/16 03:38:43;;;;;;;2.80;2.60;;;25.00;47.60;;;;;;5035400;28;20045;-71
2021/09/16 03:41:10;;;;;;;2.95;2.67;;;24.90;47.60;;;;;;5036703;28;20124;-71
2021/09/16 03:43:37;;;;;;;3.20;3.00;;;25.00;47.60;;;;;;5035141;28;20055;-72
2021/09/16 03:46:04;;;;;;;2.97;2.78;;;25.00;47.60;;;;;;5046799;28;20045;-71
2021/09/16 03:48:32;;;;;;;3.15;2.95;;;24.90;47.60;;;;;;5040767;28;20088;-70
2021/09/16 03:50:59;;;;;;;3.20;2.90;;;25.00;47.60;;;;;;5013693;28;20052;-71
2021/09/16 03:53:26;;;;;;;3.13;2.85;;;24.90;47.60;;;;;;5011777;28;20137;-71
2021/09/16 03:55:53;;;;;;;2.90;2.70;;;24.90;47.60;;;;;;5033420;28;20079;-71
2021/09/16 03:58:20;;;;;;;3.50;3.20;;;24.90;48.20;;;;;;5036284;28;20049;-72
2021/09/16 04:03:55;;;;;;;2.65;2.45;;;24.90;47.60;;;;;;5039883;28;20041;-70
2021/09/16 04:06:22;;;;;;;2.75;2.55;;;24.90;47.60;;;;;;5034430;28;20080;-71
2021/09/16 04:08:49;;;;;;;3.00;2.80;;;24.90;47.70;;;;;;5015241;28;20129;-71
2021/09/16 04:11:18;;;;;;;2.78;2.58;;;24.90;47.70;;;;;;5014146;28;20045;-69
2021/09/16 04:13:45;;;;;;;3.33;3.03;;;24.90;47.70;;;;;;5018846;28;20049;-71
2021/09/16 04:16:13;;;;;;;3.13;2.92;;;24.90;47.70;;;;;;5029068;28;20129;-71
2021/09/16 04:18:40;;;;;;;2.85;2.65;;;24.90;47.70;;;;;;5029538;28;20128;-71
2021/09/16 04:21:07;;;;;;;2.90;2.70;;;24.90;47.70;;;;;;5019079;28;20129;-70
2021/09/16 04:23:34;;;;;;;2.88;2.67;;;24.90;47.70;;;;;;5023901;28;20053;-71
2021/09/16 04:26:01;;;;;;;2.45;2.25;;;24.90;47.70;;;;;;5028471;28;20490;-71
2021/09/16 04:28:28;;;;;;;2.83;2.63;;;24.90;47.70;;;;;;5023749;28;20046;-72
2021/09/16 04:31:07;;;;;;;3.03;2.78;;;24.90;47.70;;;;;;5017185;28;20128;-71
2021/09/16 04:33:34;;;;;;;3.25;2.95;;;24.90;47.70;;;;;;5023245;28;20045;-71
2021/09/16 04:36:02;;;;;;;2.85;2.65;;;24.90;47.70;;;;;;5033484;28;20052;-71
2021/09/16 04:38:29;;;;;;;3.42;3.13;;;24.90;47.70;;;;;;5028084;28;20053;-70
2021/09/16 04:41:37;;;;;;;3.58;3.28;;;24.90;47.80;;;;;;5019603;28;20037;-71
2021/09/16 04:44:04;;;;;;;2.70;2.50;;;24.90;47.70;;;;;;5017644;28;20491;-71
2021/09/16 04:46:31;;;;;;;2.50;2.30;;;24.90;47.70;;;;;;5027714;28;20051;-72
2021/09/16 04:48:58;;;;;;;2.72;2.53;;;24.90;47.70;;;;;;5029722;28;20045;-72
2021/09/16 04:51:25;;;;;;;2.83;2.60;;;24.90;47.70;;;;;;5015401;28;20045;-70
2021/09/16 04:53:53;;;;;;;2.75;2.55;;;24.90;47.70;;;;;;5025902;28;20048;-71
2021/09/16 04:56:20;;;;;;;3.03;2.78;;;24.90;47.60;;;;;;5028108;28;20136;-70
2021/09/16 04:58:47;;;;;;;2.65;2.45;;;24.90;47.60;;;;;;5029019;28;20051;-72
2021/09/16 05:01:14;;;;;;;4.47;2.33;;;24.90;47.70;;;;;;5022392;28;20045;-71
2021/09/16 05:03:41;;;;;;;3.70;3.25;;;25.00;47.70;;;;;;5026555;28;20072;-73
2021/09/16 05:06:10;;;;;;;3.17;2.30;;;24.90;47.60;;;;;;5029491;28;20054;-70
2021/09/16 05:08:37;;;;;;;2.80;2.60;;;25.00;47.60;;;;;;5033121;28;20136;-72
2021/09/16 05:11:04;;;;;;;3.17;2.88;;;24.90;47.60;;;;;;5010615;28;20044;-70
2021/09/16 05:13:31;;;;;;;3.17;2.97;;;24.90;47.60;;;;;;5019574;28;20052;-72
2021/09/16 05:15:58;;;;;;;3.00;2.70;;;24.90;47.70;;;;;;5028818;28;20134;-71
2021/09/16 05:18:26;;;;;;;2.72;2.53;;;24.90;47.70;;;;;;4997760;28;20731;-71
2021/09/16 05:20:53;;;;;;;2.88;2.67;;;24.80;48.20;;;;;;4997191;28;20072;-72
2021/09/16 05:23:20;;;;;;;5.22;3.00;;;24.80;47.70;;;;;;5008307;28;20074;-72
2021/09/16 05:25:48;;;;;;;3.00;2.80;;;24.70;47.80;;;;;;5023647;28;20132;-75
2021/09/16 05:28:15;;;;;;;2.75;2.60;;;24.70;48.10;;;;;;5023148;28;20570;-73
2021/09/16 05:30:58;;;;;;;4.15;3.08;;;24.50;48.40;;;;;;5016182;28;20870;-70
2021/09/16 05:33:25;;;;;;;3.47;3.17;;;24.40;48.80;;;;;;5000442;28;20045;-72
2021/09/16 05:35:52;;;;;;;2.97;2.67;;;24.30;48.90;;;;;;5026472;28;20053;-72
2021/09/16 05:38:19;;;;;;;2.63;2.50;;;24.10;49.20;;;;;;5013351;28;20095;-70
2021/09/16 05:40:58;;;;;;;3.38;2.90;;;24.00;49.40;;;;;;5013117;28;20052;-71
2021/09/16 05:43:33;;;;;;;3.00;2.80;;;23.80;49.70;;;;;;5001559;28;20049;-75
2021/09/16 05:46:00;;;;;;;3.08;2.78;;;23.70;50.50;;;;;;5022511;28;20084;-75
2021/09/16 05:48:27;;;;;;;3.45;3.15;;;23.60;50.90;;;;;;5014333;28;20136;-75
2021/09/16 05:51:00;;;;;;;3.67;3.38;;;23.50;51.40;;;;;;5022941;28;20042;-76
2021/09/16 05:53:27;;;;;;;3.22;2.92;;;23.30;51.80;;;;;;4995835;28;20065;-78
2021/09/16 05:55:55;;;;;;;4.15;3.75;;;23.30;52.10;;;;;;5020216;28;20059;-73
2021/09/16 05:58:22;;;;;;;3.42;3.05;;;23.20;52.20;;;;;;5013796;28;20878;-74
2021/09/16 06:01:11;;;;;;;4.00;3.58;;;23.10;52.60;;;;;;5016487;28;20053;-73
2021/09/16 06:03:38;;;;;;;3.60;3.30;;;23.00;52.70;;;;;;4993892;28;20730;-73
2021/09/16 06:06:05;;;;;;;4.38;3.97;;;22.90;52.80;;;;;;5017225;28;20109;-75
2021/09/16 06:08:32;;;;;;;4.32;3.92;;;22.90;53.10;;;;;;5009419;28;20049;-70
2021/09/16 06:11:02;;;;;;;3.85;3.45;;;22.80;53.20;;;;;;5014860;28;20049;-71
2021/09/16 06:13:30;;;;;;;4.07;3.42;;;22.80;53.40;;;;;;5014389;28;20056;-68
2021/09/16 06:15:57;;;;;;;4.25;3.95;;;22.70;53.60;;;;;;5015811;28;20132;-71
2021/09/16 06:18:24;;;;;;;6.15;3.95;;;22.70;54.00;;;;;;4998178;28;20085;-67
2021/09/16 06:20:57;;;;;;;4.40;4.00;;;22.70;54.00;;;;;;5017095;28;20046;-67
2021/09/16 06:23:24;;;;;;;4.15;3.75;;;22.60;54.10;;;;;;5012210;28;20632;-70
2021/09/16 06:25:51;;;;;;;4.88;4.18;;;22.60;54.40;;;;;;5017861;28;20048;-75
2021/09/16 06:28:18;;;;;;;5.55;3.72;;;22.60;54.40;;;;;;5023827;28;20081;-71
2021/09/16 06:34:16;;;;;;;5.47;4.32;;;22.60;54.70;;;;;;5006664;28;20154;-67
2021/09/16 06:36:43;;;;;;;4.63;4.18;;;22.50;54.60;;;;;;5014276;28;20064;-66
2021/09/16 06:39:10;;;;;;;4.63;4.13;;;22.50;54.70;;;;;;5022324;28;20077;-70
2021/09/16 06:42:04;;;;;;;4.68;3.80;;;22.50;54.90;;;;;;5008562;28;20507;-69
2021/09/16 06:44:32;;;;;;;4.15;3.80;;;22.50;54.90;;;;;;5002179;28;20046;-69
2021/09/16 06:47:00;;;;;;;4.65;3.90;;;22.50;54.90;;;;;;5017733;28;20073;-73
2021/09/16 06:49:27;;;;;;;10.30;4.18;;;22.50;55.10;;;;;;5008067;28;20042;-69
2021/09/16 06:52:02;;;;;;;6.70;4.25;;;22.50;55.20;;;;;;5008856;28;20040;-73
2021/09/16 06:54:31;;;;;;;4.82;4.05;;;22.50;55.30;;;;;;5016251;28;20049;-74
2021/09/16 06:56:58;;;;;;;4.40;4.00;;;22.50;55.50;;;;;;5010303;28;20073;-72
2021/09/16 06:59:25;;;;;;;6.10;4.40;;;22.50;55.50;;;;;;5007995;28;20050;-70
2021/09/16 07:02:02;;;;;;;5.18;4.28;;;22.40;55.10;;;;;;5012469;28;20063;-73
2021/09/16 07:04:29;;;;;;;8.15;4.40;;;22.40;55.00;;;;;;5003280;28;20054;-74
2021/09/16 07:06:58;;;;;;;6.15;4.30;;;22.40;55.00;;;;;;5001578;28;20123;-75
2021/09/16 07:09:26;;;;;;;5.50;4.18;;;22.40;55.00;;;;;;5019282;28;20133;-70
2021/09/16 07:11:53;;;;;;;5.30;4.80;;;22.40;55.00;;;;;;5018249;28;20057;-68
2021/09/16 07:14:20;;;;;;;5.20;4.70;;;22.40;56.00;;;;;;5020153;28;20057;-66
2021/09/16 07:16:48;;;;;;;8.85;5.85;;;22.40;56.20;;;;;;5039432;28;20132;-66
2021/09/16 07:19:15;;;;;;;12.05;6.72;;;22.40;56.50;;;;;;5039464;28;20136;-66
2021/09/16 07:21:42;;;;;;;8.77;7.35;;;22.40;56.60;;;;;;5039503;28;20049;-66
2021/09/16 07:24:09;;;;;;;15.60;7.28;;;22.40;57.30;;;;;;5040000;28;20506;-71
2021/09/16 07:26:37;;;;;;;9.57;7.07;;;22.40;56.70;;;;;;5039062;28;20072;-70
2021/09/16 07:29:04;;;;;;;8.15;7.22;;;22.40;56.70;;;;;;5038749;28;20076;-65
2021/09/16 07:31:31;;;;;;;9.98;7.60;;;22.40;56.70;;;;;;5041444;28;20132;-67
2021/09/16 07:33:58;;;;;;;10.63;8.05;;;22.40;57.00;;;;;;5040944;28;20049;-69
2021/09/16 07:36:26;;;;;;;10.00;7.75;;;22.50;57.10;;;;;;5040996;28;20041;-67
2021/09/16 07:38:54;;;;;;;9.93;7.88;;;22.50;57.10;;;;;;5041093;28;20136;-70
2021/09/16 07:41:22;;;;;;;9.63;7.70;;;22.40;57.10;;;;;;5040930;28;20048;-70
2021/09/16 07:43:49;;;;;;;13.57;8.18;;;22.50;57.20;;;;;;5022734;28;20049;-70
2021/09/16 07:46:16;;;;;;;12.10;7.88;;;22.50;57.40;;;;;;5040352;28;20128;-66
2021/09/16 07:48:43;;;;;;;9.68;8.15;;;22.50;57.50;;;;;;5038650;28;20498;-66
2021/09/16 07:51:10;;;;;;;12.65;8.68;;;22.50;57.30;;;;;;5022171;28;20056;-71
2021/09/16 07:53:38;;;;;;;16.33;8.95;;;22.60;57.40;;;;;;5038926;28;20473;-66
2021/09/16 07:56:05;;;;;;;10.27;8.85;;;22.60;57.30;;;;;;5039009;28;20124;-65
2021/09/16 07:58:32;;;;;;;13.65;9.73;;;22.60;57.40;;;;;;5038875;28;20475;-63
2021/09/16 08:00:59;;;;;;;14.60;8.93;;;22.60;57.50;;;;;;5038994;28;20108;-64
2021/09/16 08:03:26;;;;;;;11.75;9.60;;;22.60;57.30;;;;;;5038419;28;20465;-63
2021/09/16 08:05:54;;;;;;;10.23;9.20;;;22.60;57.20;;;;;;5038876;28;20053;-65
2021/09/16 08:08:22;;;;;;;14.95;8.98;;;22.60;57.30;;;;;;5038476;28;20083;-65
2021/09/16 08:10:49;;;;;;;10.40;8.70;;;22.70;57.30;;;;;;5039714;28;20140;-64
2021/09/16 08:13:16;;;;;;;14.70;9.10;;;22.70;57.30;;;;;;5038476;28;20050;-66
2021/09/16 08:15:43;;;;;;;17.05;9.68;;;22.70;57.50;;;;;;5038292;28;20122;-63
2021/09/16 08:18:15;;;;;;;12.68;9.80;;;22.70;57.40;;;;;;5021933;28;20467;-66
2021/09/16 08:20:48;;;;;;;14.38;10.20;;;22.70;57.30;;;;;;5038266;28;20450;-64
2021/09/16 08:23:17;;;;;;;17.30;10.00;;;22.80;57.70;;;;;;5037740;28;20087;-64
2021/09/16 08:25:45;;;;;;;13.65;9.38;;;22.80;57.60;;;;;;5036396;28;20089;-63
2021/09/16 08:28:13;;;;;;;15.82;9.80;;;22.80;57.60;;;;;;5011904;28;20743;-64
2021/09/16 08:31:08;;;;;;;11.88;9.55;;;22.80;57.70;;;;;;5015682;28;20743;-64
2021/09/16 08:33:36;;;;;;;14.55;10.13;;;22.90;57.80;;;;;;5013971;28;20124;-66
2021/09/16 08:36:04;;;;;;;14.77;10.13;;;22.90;57.80;;;;;;5022552;28;20543;-66
2021/09/16 08:38:31;;;;;;;13.38;10.15;;;22.90;57.60;;;;;;5011758;28;20133;-66
2021/09/16 08:40:59;;;;;;;14.82;10.52;;;23.00;57.90;;;;;;5000776;28;20101;-65
2021/09/16 08:43:31;;;;;;;18.13;10.10;;;23.00;57.90;;;;;;5010161;28;20045;-65
2021/09/16 08:46:00;;;;;;;14.35;10.55;;;23.00;57.90;;;;;;5007602;28;20037;-65
2021/09/16 08:48:27;;;;;;;11.35;10.15;;;23.00;57.70;;;;;;5019004;28;20056;-64
2021/09/16 08:51:34;;;;;;;19.33;10.35;;;23.10;57.40;;;;;;5009084;28;20661;-65
2021/09/16 08:54:02;;;;;;;14.15;9.85;;;23.10;57.50;;;;;;5018644;28;20136;-66
2021/09/16 08:56:31;;;;;;;13.02;9.93;;;23.10;57.30;;;;;;5022109;28;20044;-70
2021/09/16 08:59:04;;;;;;;12.35;9.70;;;23.10;57.40;;;;;;5028718;28;20054;-66
2021/09/16 09:01:44;;;;;;;13.48;9.82;;;23.10;57.80;;;;;;5017425;28;20045;-64
2021/09/16 09:04:13;;;;;;;15.40;9.73;;;23.10;57.70;;;;;;5017054;28;20046;-65
2021/09/16 09:06:42;;;;;;;13.00;10.52;;;23.10;57.60;;;;;;5023274;28;20161;-65
2021/09/16 09:09:17;;;;;;;11.18;9.93;;;23.10;57.50;;;;;;5018094;28;20096;-65
2021/09/16 09:12:11;;;;;;;13.27;10.52;;;23.10;57.40;;;;;;5001821;28;20045;-65
2021/09/16 09:14:42;;;;;;;19.13;10.40;;;23.10;57.60;;;;;;5018776;28;20061;-65
2021/09/16 09:17:24;;;;;;;;;;;23.20;57.40;;;;;;5017357;28;20098;-64
2021/09/16 09:20:11;;;;;;;16.23;11.13;;;23.20;57.50;;;;;;5014118;28;19931;-65
2021/09/16 09:22:40;;;;;;;13.55;9.23;;;23.20;57.40;;;;;;5011313;28;20116;-68
2021/09/16 09:25:13;;;;;;;13.60;9.45;;;23.20;57.30;;;;;;5013013;28;20037;-65
2021/09/16 09:27:50;;;;;;;12.07;9.43;;;23.20;57.20;;;;;;5010520;28;20135;-64
2021/09/16 09:30:56;;;;;;;13.73;10.13;;;23.10;57.90;;;;;;5010873;28;20044;-64
2021/09/16 09:33:29;;;;;;;14.85;10.93;;;23.10;57.60;;;;;;5009895;28;20144;-66
2021/09/16 09:36:06;;;;;;;14.05;10.73;;;23.10;57.70;;;;;;5022315;28;20128;-65
2021/09/16 09:38:47;;;;;;;12.07;9.82;;;23.10;57.70;;;;;;5019997;28;20575;-69
2021/09/16 09:41:40;;;;;;;13.27;9.95;;;23.00;57.70;;;;;;5014743;28;20631;-70
2021/09/16 09:44:13;;;;;;;10.38;9.27;;;23.00;57.70;;;;;;5014132;28;20127;-70
2021/09/16 09:46:50;;;;;;;15.23;9.27;;;23.00;57.60;;;;;;5027821;28;20115;-67
2021/09/16 09:49:25;;;;;;;9.75;8.75;;;23.10;57.60;;;;;;5019595;28;20080;-66
2021/09/16 09:51:59;;;;;;;13.43;8.68;;;23.10;57.50;;;;;;5001750;28;20059;-72
2021/09/16 09:54:41;;;;;;;9.52;8.55;;;23.10;57.60;;;;;;5013487;28;20080;-66
2021/09/16 09:57:18;;;;;;;13.38;9.07;;;23.10;57.70;;;;;;4999957;28;20045;-66
2021/09/16 10:03:28;;;;;;;13.13;9.98;;;23.10;57.60;;;;;;5006062;28;20045;-65
2021/09/16 10:06:09;;;;;;;15.07;8.98;;;23.10;57.70;;;;;;4999531;28;20042;-66
2021/09/16 10:08:36;;;;;;;11.75;8.80;;;23.10;58.00;;;;;;5024481;28;20103;-66
2021/09/16 10:11:03;;;;;;;12.35;10.10;;;23.20;57.80;;;;;;5014988;28;20706;-68
2021/09/16 10:17:11;;;;;;;11.32;9.88;;;23.20;57.70;;;;;;5036697;28;20051;-67
2021/09/16 10:19:41;;;;;;;13.20;9.95;;;23.30;57.60;;;;;;5037015;28;20175;-66
2021/09/16 10:22:10;;;;;;;11.20;10.00;;;23.30;57.60;;;;;;5036457;28;20545;-66
2021/09/16 10:24:37;;;;;;;14.43;8.93;;;23.30;57.50;;;;;;5035863;28;20080;-65
2021/09/16 10:27:26;;;;;;;14.10;10.20;;;23.40;57.50;;;;;;5025537;28;20741;-68
2021/09/16 10:30:26;;;;;;;12.10;10.38;;;23.40;57.50;;;;;;5018930;28;20449;-67
2021/09/16 10:33:28;;;;;;;12.65;9.75;;;23.40;57.10;;;;;;5015998;28;20523;-67
2021/09/16 10:36:08;;;;;;;15.20;9.73;;;23.40;57.10;;;;;;5020883;28;20046;-68
2021/09/16 10:38:45;;;;;;;12.05;9.38;;;23.40;57.00;;;;;;5030391;28;20625;-67
2021/09/16 10:42:18;;;;;;;12.35;8.93;;;23.50;57.40;;;;;;5029185;28;20133;-70
2021/09/16 10:49:11;;;;;;;13.10;9.25;;;23.50;57.10;;;;;;5031155;28;20045;-70
2021/09/16 11:01:58;;;;;;;14.18;9.32;;;23.70;56.90;;;;;;5370199;23;20081;-72
2021/09/16 11:05:06;;;;;;;11.88;9.18;;;23.70;57.10;;;;;;5039966;28;20128;-72
2021/09/16 11:07:52;;;;;;;13.15;9.70;;;23.80;57.20;;;;;;5019937;28;20061;-68
2021/09/16 11:10:46;;;;;;;15.20;8.95;;;23.80;56.90;;;;;;5001701;28;20080;-67
2021/09/16 11:13:36;;;;;;;11.73;8.60;;;23.80;57.10;;;;;;5018432;28;20161;-67
2021/09/16 11:16:05;;;;;;;12.35;9.85;;;23.80;56.80;;;;;;5019875;28;20050;-68
2021/09/16 11:18:42;;;;;;;11.88;8.00;;;23.80;56.80;;;;;;5019228;28;20085;-67
2021/09/16 11:21:09;;;;;;;12.82;8.88;;;23.80;56.80;;;;;;5018750;28;20134;-67
2021/09/16 11:23:43;;;;;;;14.57;8.73;;;23.80;57.10;;;;;;5019931;28;20088;-71
2021/09/16 11:26:19;;;;;;;14.75;8.95;;;23.80;57.10;;;;;;5019805;28;20045;-68
2021/09/16 11:29:01;;;;;;;11.70;8.48;;;23.80;57.10;;;;;;5002910;28;20054;-71
2021/09/16 11:31:29;;;;;;;9.38;8.38;;;23.90;57.10;;;;;;5017982;28;20153;-72
2021/09/16 11:34:08;;;;;;;10.73;8.73;;;23.90;56.90;;;;;;5019466;28;20073;-66
2021/09/16 11:36:36;;;;;;;14.45;8.80;;;23.90;56.80;;;;;;5018687;28;20089;-69
2021/09/16 11:39:17;;;;;;;10.40;9.27;;;23.90;56.70;;;;;;5017327;28;20052;-66
2021/09/16 11:41:44;;;;;;;10.13;8.68;;;23.90;56.40;;;;;;5018014;28;20487;-66
2021/09/16 11:44:11;;;;;;;13.60;9.35;;;24.00;56.40;;;;;;5018693;28;20128;-66
2021/09/16 11:46:38;;;;;;;14.18;8.48;;;24.00;56.30;;;;;;5018968;28;20137;-66
2021/09/16 11:49:05;;;;;;;12.65;7.35;;;24.00;56.20;;;;;;5018580;28;20054;-68
2021/09/16 11:51:32;;;;;;;15.50;8.45;;;24.00;56.10;;;;;;5017767;28;20202;-66
2021/09/16 11:54:09;;;;;;;9.25;8.15;;;23.90;56.10;;;;;;5017238;28;20054;-66
2021/09/16 11:56:37;;;;;;;14.23;7.93;;;23.90;56.20;;;;;;5018848;28;20145;-67
2021/09/16 11:59:08;;;;;;;10.48;7.35;;;23.90;56.30;;;;;;5018131;28;20558;-67
2021/09/16 12:01:35;;;;;;;9.98;8.63;;;23.90;56.30;;;;;;5015607;28;20069;-67
2021/09/16 12:04:03;;;;;;;9.27;7.40;;;23.90;56.40;;;;;;5018607;28;20054;-68
2021/09/16 12:06:37;;;;;;;9.27;7.32;;;23.90;56.60;;;;;;5001295;28;20423;-71
2021/09/16 12:09:04;;;;;;;11.48;7.75;;;23.90;56.80;;;;;;5019847;28;20049;-74
2021/09/16 12:11:32;;;;;;;9.25;7.00;;;23.90;56.90;;;;;;5019658;28;20057;-71
2021/09/16 12:14:02;;;;;;;11.70;7.65;;;23.90;57.00;;;;;;5002853;28;20089;-70
2021/09/16 12:16:35;;;;;;;10.32;7.00;;;23.90;57.10;;;;;;5020935;28;20053;-67
2021/09/16 12:19:07;;;;;;;8.60;6.88;;;23.90;57.20;;;;;;4998275;28;20081;-69
2021/09/16 12:22:07;;;;;;;10.32;7.35;;;23.90;57.30;;;;;;5003074;28;20046;-69
2021/09/16 12:24:36;;;;;;;11.18;7.40;;;23.90;57.30;;;;;;5002736;28;20054;-67
2021/09/16 12:27:04;;;;;;;8.32;7.50;;;23.90;57.30;;;;;;5003285;28;20070;-67
2021/09/16 12:29:37;;;;;;;8.20;7.25;;;23.90;57.20;;;;;;4979307;28;20054;-68
2021/09/16 12:32:51;;;;;;;9.80;6.85;;;23.90;57.10;;;;;;4993118;28;20044;-67
2021/09/16 12:35:18;;;;;;;10.30;7.55;;;23.90;57.20;;;;;;5002038;28;20061;-65
2021/09/16 12:37:45;;;;;;;9.73;7.50;;;23.90;57.20;;;;;;5002147;28;20050;-65
2021/09/16 12:40:44;;;;;;;13.27;7.70;;;23.90;57.10;;;;;;4998001;28;20121;-65
2021/09/16 12:43:12;;;;;;;10.85;7.35;;;23.90;57.20;;;;;;4992468;28;20053;-65
2021/09/16 12:45:39;;;;;;;8.00;7.20;;;23.90;57.10;;;;;;4999696;28;20073;-65
2021/09/16 12:48:12;;;;;;;7.85;7.05;;;24.00;57.10;;;;;;4983228;28;20061;-67
2021/09/16 12:51:06;;;;;;;9.75;7.00;;;24.00;57.10;;;;;;4994380;28;20100;-65
2021/09/16 12:53:42;;;;;;;11.70;7.85;;;24.10;57.20;;;;;;4994504;28;20507;-66
2021/09/16 12:56:12;;;;;;;10.32;8.75;;;24.10;57.10;;;;;;4997314;28;20193;-68
2021/09/16 12:58:39;;;;;;;8.48;7.25;;;24.10;57.20;;;;;;5000784;28;20053;-68
2021/09/16 13:01:07;;;;;;;12.07;7.75;;;24.10;57.10;;;;;;4990826;28;20125;-70
2021/09/16 13:03:35;;;;;;;12.35;7.72;;;24.10;57.30;;;;;;4992883;28;20049;-65
2021/09/16 13:06:14;;;;;;;14.00;7.93;;;24.10;57.30;;;;;;5000764;28;20038;-65
2021/09/16 13:08:43;;;;;;;10.18;8.30;;;24.10;57.30;;;;;;4998451;28;20085;-70
2021/09/16 13:11:48;;;;;;;10.82;7.78;;;24.10;57.20;;;;;;4988659;28;20031;-67
2021/09/16 13:14:16;;;;;;;12.98;8.40;;;24.10;57.20;;;;;;4993600;28;20141;-73
2021/09/16 13:16:44;;;;;;;8.02;7.28;;;24.10;57.30;;;;;;4997355;28;20095;-70
2021/09/16 13:19:11;;;;;;;9.27;7.30;;;24.10;57.30;;;;;;5002315;28;20349;-75
2021/09/16 13:21:46;;;;;;;8.48;6.75;;;24.10;57.30;;;;;;4979442;28;20048;-70
2021/09/16 13:24:14;;;;;;;13.15;7.35;;;24.10;57.50;;;;;;4997084;28;20738;-65
2021/09/16 13:26:43;;;;;;;15.95;7.47;;;24.10;57.50;;;;;;4998369;28;20122;-65
2021/09/16 13:29:12;;;;;;;8.77;7.07;;;24.10;57.70;;;;;;4981227;28;20041;-68
2021/09/16 13:31:41;;;;;;;7.65;6.57;;;24.10;57.80;;;;;;4992661;28;20123;-67
2021/09/16 13:34:08;;;;;;;8.85;6.35;;;24.00;57.70;;;;;;4993092;28;20066;-69
2021/09/16 13:36:36;;;;;;;7.63;6.93;;;24.00;57.60;;;;;;4997600;28;20597;-68
2021/09/16 13:39:04;;;;;;;8.50;6.97;;;24.00;57.80;;;;;;5003226;28;20061;-66